Time;durP1;ratioP1;P1;durP2;ratioP2;P2;SDS_P1;SDS_P2;PMS_P1;PMS_P2;Temp;Humidity;BMP_temperature;BMP_pressure;BME280_temperature;BME280_humidity;BME280_pressure;Samples;Min_cycle;Max_cycle;Signal;HPM_P1;HPM_P2
2023/03/24 00:00:04;;;;;;;6.00;3.72;;;;;13.70;97528.00;;;;5012678;28;20042;-58
2023/03/24 00:02:36;;;;;;;4.95;3.83;;;;;13.70;97533.00;;;;5013053;28;20392;-56
2023/03/24 00:05:04;;;;;;;5.25;3.88;;;;;13.60;97524.00;;;;5013410;28;20125;-56
2023/03/24 00:07:32;;;;;;;4.25;3.83;;;;;13.60;97520.00;;;;5013062;28;20503;-56
2023/03/24 00:10:01;;;;;;;5.68;3.67;;;;;13.50;97503.00;;;;5012377;28;20438;-56
2023/03/24 00:12:27;;;;;;;4.65;3.72;;;;;13.50;97501.00;;;;5013027;28;20046;-60
2023/03/24 00:14:54;;;;;;;6.47;4.20;;;;;13.50;97495.00;;;;5012982;28;20038;-61
2023/03/24 00:17:24;;;;;;;4.47;3.78;;;;;13.40;97494.00;;;;5012945;28;20495;-61
2023/03/24 00:19:51;;;;;;;6.50;4.30;;;;;13.30;97491.00;;;;5011133;28;20384;-61
2023/03/24 00:22:20;;;;;;;5.50;4.10;;;;;13.20;97484.00;;;;5013044;28;20214;-60
2023/03/24 00:24:48;;;;;;;6.20;3.70;;;;;13.20;97480.00;;;;5013522;28;20470;-57
2023/03/24 00:27:16;;;;;;;4.75;4.25;;;;;13.20;97467.00;;;;5013102;28;20190;-58
2023/03/24 00:29:43;;;;;;;4.60;4.07;;;;;13.20;97473.00;;;;5012298;28;20049;-57
2023/03/24 00:32:10;;;;;;;8.10;4.72;;;;;13.20;97477.00;;;;5011693;28;20407;-58
2023/03/24 00:34:37;;;;;;;5.90;4.38;;;;;13.20;97475.00;;;;5012691;28;20060;-57
2023/03/24 00:37:05;;;;;;;5.13;4.05;;;;;13.20;97471.00;;;;5011310;28;20046;-58
2023/03/24 00:39:32;;;;;;;5.45;4.40;;;;;13.20;97470.00;;;;5012305;28;20430;-58
2023/03/24 00:42:00;;;;;;;8.27;5.10;;;;;13.30;97463.00;;;;5014028;28;20462;-58
2023/03/24 00:44:27;;;;;;;5.85;4.38;;;;;13.40;97469.00;;;;5014920;28;20120;-58
2023/03/24 00:46:54;;;;;;;7.75;4.80;;;;;13.40;97475.00;;;;5011733;28;20054;-59
2023/03/24 00:49:41;;;;;;;6.43;4.40;;;;;13.40;97474.00;;;;5012288;28;20545;-59
2023/03/24 00:52:16;;;;;;;5.15;3.70;;;;;13.30;97478.00;;;;5011281;28;20042;-58
2023/03/24 00:54:45;;;;;;;9.13;4.95;;;;;13.40;97470.00;;;;5012852;28;20520;-57
2023/03/24 00:57:13;;;;;;;6.63;4.72;;;;;13.40;97460.00;;;;5011668;28;20096;-58
2023/03/24 00:59:47;;;;;;;6.47;4.55;;;;;13.50;97458.00;;;;5012071;28;20049;-58
2023/03/24 01:02:23;;;;;;;6.43;4.40;;;;;13.40;97455.00;;;;5012158;28;20457;-57
2023/03/24 01:04:55;;;;;;;7.10;4.88;;;;;13.40;97455.00;;;;5013062;28;20430;-58
2023/03/24 01:07:27;;;;;;;6.38;4.80;;;;;13.40;97454.00;;;;5012057;28;20045;-59
2023/03/24 01:09:56;;;;;;;6.68;4.70;;;;;13.50;97456.00;;;;5012788;28;20048;-59
2023/03/24 01:12:25;;;;;;;6.78;5.00;;;;;13.40;97440.00;;;;5012042;28;20061;-59
2023/03/24 01:14:52;;;;;;;6.00;4.68;;;;;13.40;97452.00;;;;5019905;28;20129;-60
2023/03/24 01:17:24;;;;;;;6.05;4.47;;;;;13.40;97453.00;;;;5017987;28;20050;-59
2023/03/24 01:19:55;;;;;;;6.80;4.53;;;;;13.40;97441.00;;;;5017458;28;20038;-59
2023/03/24 01:22:27;;;;;;;6.80;4.38;;;;;13.30;97433.00;;;;5016686;28;20060;-59
2023/03/24 01:24:54;;;;;;;5.68;4.50;;;;;13.30;97436.00;;;;5017208;28;20050;-59
2023/03/24 01:27:21;;;;;;;6.47;4.97;;;;;13.40;97440.00;;;;5017510;28;20045;-59
2023/03/24 01:29:48;;;;;;;5.68;4.50;;;;;13.40;97434.00;;;;5017396;28;20046;-59
2023/03/24 01:32:14;;;;;;;7.63;4.60;;;;;13.40;97431.00;;;;5020755;28;20046;-60
2023/03/24 01:34:41;;;;;;;6.03;4.28;;;;;13.40;97433.00;;;;5019438;28;20074;-59
2023/03/24 01:37:08;;;;;;;4.85;4.00;;;;;13.40;97418.00;;;;5021088;28;20057;-59
2023/03/24 01:39:34;;;;;;;5.07;4.00;;;;;13.50;97419.00;;;;5017257;28;20049;-59
2023/03/24 01:42:01;;;;;;;6.43;4.03;;;;;13.60;97416.00;;;;5017616;28;20422;-58
2023/03/24 01:44:30;;;;;;;4.57;3.67;;;;;13.60;97400.00;;;;5015403;28;20061;-60
2023/03/24 01:46:57;;;;;;;4.78;4.07;;;;;13.70;97409.00;;;;5016362;28;20133;-58
2023/03/24 01:49:30;;;;;;;4.78;3.80;;;;;13.70;97406.00;;;;5016151;28;20050;-60
2023/03/24 01:52:00;;;;;;;5.28;3.75;;;;;13.70;97394.00;;;;5018495;28;20045;-59
2023/03/24 01:54:33;;;;;;;5.25;4.25;;;;;13.70;97392.00;;;;5019511;28;20045;-59
2023/03/24 01:57:10;;;;;;;5.10;3.78;;;;;13.70;97380.00;;;;5016620;28;20423;-59
2023/03/24 01:59:41;;;;;;;5.63;4.03;;;;;13.70;97371.00;;;;5014543;28;20060;-59
2023/03/24 02:02:12;;;;;;;4.93;4.25;;;;;13.70;97354.00;;;;5032322;28;20057;-59
2023/03/24 02:04:49;;;;;;;4.20;3.60;;;;;13.80;97372.00;;;;5017481;28;20046;-59
2023/03/24 02:07:33;;;;;;;5.15;4.18;;;;;13.80;97351.00;;;;5016072;28;20517;-60
2023/03/24 02:10:07;;;;;;;6.27;3.37;;;;;13.90;97353.00;;;;5015227;28;20052;-59
2023/03/24 02:12:34;;;;;;;5.35;3.45;;;;;13.90;97346.00;;;;5015395;28;20053;-59
2023/03/24 02:15:05;;;;;;;4.40;3.33;;;;;13.90;97348.00;;;;5014689;28;20096;-60
2023/03/24 02:17:59;;;;;;;6.43;4.03;;;;;13.90;97363.00;;;;5014631;28;20045;-59
2023/03/24 02:20:32;;;;;;;5.78;3.97;;;;;13.90;97359.00;;;;5014233;28;20123;-59
2023/03/24 02:23:26;;;;;;;4.40;3.90;;;;;14.00;97361.00;;;;5014699;28;20121;-59
2023/03/24 02:26:02;;;;;;;5.10;4.03;;;;;14.00;97354.00;;;;5016675;28;20564;-59
2023/03/24 02:28:51;;;;;;;5.32;3.85;;;;;14.00;97347.00;;;;5014844;28;20084;-59
2023/03/24 02:31:37;;;;;;;7.43;4.47;;;;;14.00;97362.00;;;;5015837;28;20046;-59
2023/03/24 02:34:53;;;;;;;7.25;4.28;;;;;14.00;97353.00;;;;5016488;28;20566;-59
2023/03/24 02:37:28;;;;;;;6.72;3.97;;;;;14.00;97353.00;;;;4964801;28;20058;-60
2023/03/24 02:40:16;;;;;;;4.80;4.00;;;;;14.10;97354.00;;;;5014598;28;20042;-59
2023/03/24 02:42:59;;;;;;;6.75;4.22;;;;;14.20;97361.00;;;;5014298;28;20050;-59
2023/03/24 02:45:31;;;;;;;6.40;4.00;;;;;14.20;97355.00;;;;5013666;28;20081;-58
2023/03/24 02:48:13;;;;;;;6.30;4.32;;;;;14.30;97358.00;;;;5014058;28;20406;-58
2023/03/24 02:50:44;;;;;;;6.93;4.55;;;;;14.30;97359.00;;;;5013407;28;20463;-60
2023/03/24 02:53:31;;;;;;;6.25;4.30;;;;;14.30;97369.00;;;;5015374;28;20045;-56
2023/03/24 02:56:28;;;;;;;5.00;4.25;;;;;14.30;97370.00;;;;5014522;28;20054;-60
2023/03/24 02:59:16;;;;;;;6.53;4.55;;;;;14.30;97366.00;;;;5012881;28;20053;-58
2023/03/24 03:02:02;;;;;;;5.78;4.90;;;;;14.30;97361.00;;;;5013459;28;20423;-59
2023/03/24 03:05:15;;;;;;;6.57;4.97;;;;;14.20;97367.00;;;;5016113;28;20128;-58
2023/03/24 03:07:44;;;;;;;8.25;5.55;;;;;14.20;97366.00;;;;5014007;28;20054;-59
2023/03/24 03:10:19;;;;;;;5.95;5.05;;;;;14.20;97375.00;;;;5014116;28;20064;-55
2023/03/24 03:12:48;;;;;;;6.57;5.88;;;;;14.10;97366.00;;;;5012929;28;20046;-58
2023/03/24 03:15:22;;;;;;;7.88;6.18;;;;;14.10;97370.00;;;;5013921;28;20042;-59
2023/03/24 03:17:58;;;;;;;6.63;5.87;;;;;14.00;97368.00;;;;5012980;28;20493;-59
2023/03/24 03:20:33;;;;;;;8.40;5.50;;;;;14.00;97350.00;;;;5013616;28;20050;-58
2023/03/24 03:23:06;;;;;;;8.32;5.63;;;;;14.00;97373.00;;;;5014245;28;20463;-57
2023/03/24 03:25:41;;;;;;;6.72;5.10;;;;;13.90;97352.00;;;;5012707;28;20077;-58
2023/03/24 03:28:10;;;;;;;7.00;5.70;;;;;13.90;97369.00;;;;5014235;28;20045;-58
2023/03/24 03:30:42;;;;;;;7.30;5.90;;;;;13.90;97369.00;;;;5011796;28;20046;-59
2023/03/24 03:33:23;;;;;;;7.53;5.90;;;;;13.90;97379.00;;;;5013862;28;20050;-57
2023/03/24 03:35:55;;;;;;;8.38;6.15;;;;;13.90;97373.00;;;;5012637;28;20461;-57
2023/03/24 03:39:05;;;;;;;6.75;5.50;;;;;13.90;97378.00;;;;5013455;28;20077;-60
2023/03/24 03:41:32;;;;;;;9.15;6.88;;;;;13.90;97390.00;;;;5028689;28;20038;-59
2023/03/24 03:43:59;;;;;;;7.57;6.07;;;;;13.80;97395.00;;;;5013575;28;20483;-57
2023/03/24 03:46:27;;;;;;;10.57;6.40;;;;;13.80;97406.00;;;;5012154;28;20136;-57
2023/03/24 03:48:54;;;;;;;10.45;6.82;;;;;13.70;97401.00;;;;5011469;28;20053;-56
2023/03/24 03:51:21;;;;;;;8.65;6.22;;;;;13.70;97397.00;;;;5028573;28;20038;-56
2023/03/24 03:53:57;;;;;;;9.65;6.97;;;;;13.60;97406.00;;;;5012154;28;20460;-57
2023/03/24 03:56:27;;;;;;;8.38;6.85;;;;;13.60;97409.00;;;;5028557;28;20058;-56
2023/03/24 03:59:27;;;;;;;9.98;6.93;;;;;13.60;97417.00;;;;5011333;28;20108;-56
2023/03/24 04:01:56;;;;;;;8.70;7.20;;;;;13.60;97413.00;;;;5011897;28;20042;-57
2023/03/24 04:04:55;;;;;;;7.82;6.85;;;;;13.70;97424.00;;;;5012047;28;20037;-56
2023/03/24 04:07:43;;;;;;;9.98;8.13;;;;;13.60;97431.00;;;;5011875;28;20049;-56
2023/03/24 04:11:03;;;;;;;11.73;8.20;;;;;13.70;97436.00;;;;4998486;28;20574;-56
2023/03/24 04:14:01;;;;;;;12.02;8.63;;;;;13.60;97444.00;;;;5011991;28;20052;-55
2023/03/24 04:16:52;;;;;;;10.00;7.47;;;;;13.60;97436.00;;;;5012115;28;20045;-58
2023/03/24 04:19:38;;;;;;;9.95;7.65;;;;;13.50;97449.00;;;;5011683;28;20572;-59
2023/03/24 04:22:31;;;;;;;8.73;7.32;;;;;13.40;97447.00;;;;5011786;28;20046;-60
2023/03/24 04:25:34;;;;;;;9.40;6.40;;;;;13.40;97448.00;;;;5011102;28;20049;-59
2023/03/24 04:28:40;;;;;;;8.45;6.85;;;;;13.40;97446.00;;;;5028140;28;20046;-59
2023/03/24 04:31:26;;;;;;;11.10;8.05;;;;;13.40;97444.00;;;;5013183;28;20431;-58
2023/03/24 04:34:01;;;;;;;8.23;6.60;;;;;13.40;97429.00;;;;5012069;28;20050;-59
2023/03/24 04:36:43;;;;;;;7.88;7.07;;;;;13.40;97437.00;;;;5011476;28;20045;-59
2023/03/24 04:39:30;;;;;;;7.93;7.05;;;;;13.40;97442.00;;;;5012493;28;20076;-59
2023/03/24 04:42:03;;;;;;;9.27;7.57;;;;;13.40;97424.00;;;;5011797;28;20104;-60
2023/03/24 04:44:31;;;;;;;7.78;6.90;;;;;13.40;97431.00;;;;5014095;28;20070;-58
2023/03/24 04:47:27;;;;;;;8.85;6.75;;;;;13.40;97426.00;;;;5007807;28;20173;-60
2023/03/24 04:50:09;;;;;;;9.27;7.22;;;;;13.40;97419.00;;;;5011292;28;20042;-59
2023/03/24 04:52:41;;;;;;;8.55;6.82;;;;;13.40;97418.00;;;;5012513;28;20484;-59
2023/03/24 04:55:48;;;;;;;7.88;6.05;;;;;13.40;97403.00;;;;5012275;28;20046;-59
2023/03/24 04:58:20;;;;;;;8.93;5.97;;;;;13.40;97394.00;;;;4991685;28;20046;-58
2023/03/24 05:00:48;;;;;;;9.32;5.63;;;;;13.40;97389.00;;;;5011028;28;20045;-60
2023/03/24 05:03:16;;;;;;;9.48;6.85;;;;;13.40;97392.00;;;;5012531;28;20056;-60
2023/03/24 05:05:44;;;;;;;6.00;5.40;;;;;13.40;97384.00;;;;5011286;28;20057;-60
2023/03/24 05:08:12;;;;;;;7.18;5.20;;;;;13.40;97382.00;;;;5027789;28;20096;-60
2023/03/24 05:10:39;;;;;;;7.88;5.22;;;;;13.40;97384.00;;;;5010361;28;20463;-60
2023/03/24 05:13:07;;;;;;;7.57;5.32;;;;;13.30;97391.00;;;;5011159;28;20050;-60
2023/03/24 05:15:53;;;;;;;8.68;5.65;;;;;13.30;97387.00;;;;5011141;28;20054;-60
2023/03/24 05:18:29;;;;;;;6.40;5.40;;;;;13.40;97380.00;;;;5010572;28;20069;-59
2023/03/24 05:20:56;;;;;;;9.45;5.70;;;;;13.40;97374.00;;;;5011065;28;20046;-59
2023/03/24 05:23:24;;;;;;;6.88;5.63;;;;;13.40;97379.00;;;;5011324;28;20054;-59
2023/03/24 05:25:51;;;;;;;6.53;5.47;;;;;13.40;97370.00;;;;5011030;28;20045;-59
2023/03/24 05:28:21;;;;;;;8.85;6.10;;;;;13.40;97366.00;;;;5011032;28;20085;-59
2023/03/24 05:30:48;;;;;;;8.10;6.45;;;;;13.40;97371.00;;;;5010498;28;20088;-58
2023/03/24 05:33:38;;;;;;;8.63;6.07;;;;;13.40;97372.00;;;;5000561;28;20125;-62
2023/03/24 05:36:05;;;;;;;7.53;6.45;;;;;13.40;97384.00;;;;5010848;28;20046;-60
2023/03/24 05:38:32;;;;;;;8.68;6.30;;;;;13.30;97384.00;;;;5014551;28;20446;-60
2023/03/24 05:41:00;;;;;;;8.45;6.50;;;;;13.30;97394.00;;;;5014442;28;20124;-59
2023/03/24 05:43:32;;;;;;;7.43;6.22;;;;;13.30;97382.00;;;;5014509;28;20053;-59
2023/03/24 05:46:25;;;;;;;7.60;6.43;;;;;13.40;97387.00;;;;5011563;28;20068;-61
2023/03/24 05:48:52;;;;;;;7.40;6.57;;;;;13.40;97387.00;;;;5014331;28;20431;-59
2023/03/24 05:51:20;;;;;;;7.35;6.25;;;;;13.40;97391.00;;;;5015647;28;20446;-60
2023/03/24 05:53:55;;;;;;;6.20;5.53;;;;;13.40;97396.00;;;;5014305;28;20054;-60
2023/03/24 05:56:31;;;;;;;10.30;6.57;;;;;13.40;97406.00;;;;5014201;28;20092;-59
2023/03/24 05:59:17;;;;;;;7.95;6.18;;;;;13.40;97394.00;;;;5013847;28;20392;-63
2023/03/24 06:02:07;;;;;;;8.45;6.53;;;;;13.50;97402.00;;;;5014061;28;20050;-63
2023/03/24 06:04:45;;;;;;;8.23;6.05;;;;;13.40;97392.00;;;;5014303;28;20129;-65
2023/03/24 06:07:15;;;;;;;9.45;6.88;;;;;13.50;97400.00;;;;5014356;28;20050;-62
2023/03/24 06:09:51;;;;;;;7.68;6.03;;;;;13.40;97393.00;;;;5013522;28;20163;-61
2023/03/24 06:12:20;;;;;;;7.60;6.35;;;;;13.50;97397.00;;;;5014673;28;20076;-61
2023/03/24 06:14:57;;;;;;;7.10;6.32;;;;;13.50;97406.00;;;;5014532;28;20426;-61
2023/03/24 06:17:24;;;;;;;8.88;6.65;;;;;13.50;97414.00;;;;5014039;28;20506;-62
2023/03/24 06:20:01;;;;;;;6.63;5.80;;;;;13.50;97411.00;;;;5013968;28;20410;-62
2023/03/24 06:22:43;;;;;;;7.32;5.43;;;;;13.50;97406.00;;;;5014733;28;20084;-63
2023/03/24 06:25:15;;;;;;;7.23;5.50;;;;;13.60;97406.00;;;;5014986;28;20140;-61
2023/03/24 06:27:50;;;;;;;7.70;5.85;;;;;13.50;97406.00;;;;5015463;28;20645;-61
2023/03/24 06:30:21;;;;;;;8.38;5.72;;;;;13.50;97411.00;;;;5014318;28;20038;-62
2023/03/24 06:32:51;;;;;;;6.07;5.40;;;;;13.60;97408.00;;;;5031107;28;20076;-62
2023/03/24 06:35:18;;;;;;;6.30;5.32;;;;;13.60;97403.00;;;;5014639;28;20057;-61
2023/03/24 06:37:57;;;;;;;6.75;5.00;;;;;13.60;97408.00;;;;5014520;28;20486;-59
2023/03/24 06:40:25;;;;;;;6.97;5.43;;;;;13.60;97404.00;;;;5013981;28;20130;-62
2023/03/24 06:43:21;;;;;;;5.13;4.63;;;;;13.60;97407.00;;;;5014394;28;20049;-62
2023/03/24 06:45:48;;;;;;;6.38;5.20;;;;;13.50;97400.00;;;;5015381;28;20034;-63
2023/03/24 06:48:18;;;;;;;9.20;5.50;;;;;13.60;97413.00;;;;5013181;28;20425;-62
2023/03/24 06:50:45;;;;;;;4.85;4.38;;;;;13.60;97411.00;;;;5014046;28;20407;-59
2023/03/24 06:53:12;;;;;;;6.15;5.55;;;;;13.60;97425.00;;;;5013710;28;20132;-59
2023/03/24 06:55:40;;;;;;;6.78;4.95;;;;;13.60;97430.00;;;;5013673;28;20042;-61
2023/03/24 06:58:09;;;;;;;6.65;5.35;;;;;13.60;97428.00;;;;5012952;28;20057;-60
2023/03/24 07:00:54;;;;;;;6.32;5.05;;;;;13.60;97424.00;;;;5013116;28;20042;-60
2023/03/24 07:03:42;;;;;;;5.72;5.13;;;;;13.60;97426.00;;;;5014462;28;20149;-60
2023/03/24 07:06:15;;;;;;;7.78;5.45;;;;;13.60;97413.00;;;;5014535;28;20577;-58
2023/03/24 07:08:44;;;;;;;6.82;5.10;;;;;13.60;97414.00;;;;5012070;28;20433;-59
2023/03/24 07:11:11;;;;;;;6.13;5.53;;;;;13.70;97427.00;;;;4996524;28;20072;-60
2023/03/24 07:13:48;;;;;;;8.93;5.30;;;;;13.70;97430.00;;;;5014268;28;20049;-56
2023/03/24 07:16:15;;;;;;;5.22;4.63;;;;;13.70;97443.00;;;;5012746;28;20057;-57
2023/03/24 07:18:42;;;;;;;9.80;5.00;;;;;13.70;97435.00;;;;5028622;28;20060;-58
2023/03/24 07:21:09;;;;;;;6.30;5.25;;;;;13.70;97441.00;;;;5012614;28;20136;-59
2023/03/24 07:23:36;;;;;;;5.63;4.78;;;;;13.60;97435.00;;;;5012519;28;20514;-58
2023/03/24 07:26:12;;;;;;;6.32;5.22;;;;;13.60;97454.00;;;;5029452;28;20574;-59
2023/03/24 07:28:53;;;;;;;8.05;5.32;;;;;13.60;97451.00;;;;4998933;28;20069;-59
2023/03/24 07:31:38;;;;;;;7.38;5.20;;;;;13.60;97464.00;;;;5014191;28;20042;-60
2023/03/24 07:34:08;;;;;;;8.02;4.85;;;;;13.60;97447.00;;;;5014011;28;20230;-59
2023/03/24 07:36:36;;;;;;;4.95;4.40;;;;;13.60;97444.00;;;;5013429;28;20419;-61
2023/03/24 07:39:05;;;;;;;5.88;5.28;;;;;13.60;97444.00;;;;5012003;28;20052;-62
2023/03/24 07:41:35;;;;;;;6.05;4.78;;;;;13.60;97455.00;;;;5012811;28;20042;-61
2023/03/24 07:44:08;;;;;;;6.28;5.20;;;;;13.70;97448.00;;;;5028559;28;20061;-60
2023/03/24 07:46:39;;;;;;;5.22;4.70;;;;;13.70;97450.00;;;;5012159;28;20502;-62
2023/03/24 07:49:05;;;;;;;5.47;4.47;;;;;13.80;97448.00;;;;5012844;28;20045;-57
2023/03/24 07:51:50;;;;;;;4.80;4.10;;;;;13.90;97455.00;;;;5012111;28;20042;-59
2023/03/24 07:54:37;;;;;;;4.60;4.15;;;;;13.90;97452.00;;;;5011951;28;20404;-60
2023/03/24 07:57:04;;;;;;;5.63;4.53;;;;;13.90;97458.00;;;;5013338;28;20423;-60
2023/03/24 07:59:32;;;;;;;5.43;3.88;;;;;13.80;97462.00;;;;5011125;28;20141;-60
2023/03/24 08:02:31;;;;;;;5.30;4.30;;;;;13.80;97462.00;;;;4969549;28;20076;-59
2023/03/24 08:05:21;;;;;;;4.43;3.97;;;;;13.70;97461.00;;;;5013089;28;20133;-59
2023/03/24 08:08:14;;;;;;;5.93;4.05;;;;;13.60;97468.00;;;;5010882;28;20054;-60
2023/03/24 08:10:41;;;;;;;4.95;4.30;;;;;13.60;97468.00;;;;5012401;28;20436;-58
2023/03/24 08:13:08;;;;;;;4.35;3.95;;;;;13.70;97455.00;;;;5012968;28;20041;-60
2023/03/24 08:15:34;;;;;;;5.70;4.45;;;;;13.80;97460.00;;;;5012868;28;20046;-60
2023/03/24 08:18:01;;;;;;;5.68;4.20;;;;;13.80;97464.00;;;;5012998;28;20069;-59
2023/03/24 08:20:28;;;;;;;5.13;3.88;;;;;13.80;97462.00;;;;5011115;28;20069;-59
2023/03/24 08:22:55;;;;;;;4.63;3.90;;;;;13.80;97460.00;;;;5012679;28;20050;-61
2023/03/24 08:25:24;;;;;;;5.68;3.80;;;;;13.90;97446.00;;;;5011595;28;20046;-60
2023/03/24 08:27:52;;;;;;;4.00;3.60;;;;;14.00;97451.00;;;;5011714;28;20049;-62
2023/03/24 08:30:23;;;;;;;3.78;3.20;;;;;14.00;97464.00;;;;5012245;28;20073;-57
2023/03/24 08:32:56;;;;;;;4.18;3.08;;;;;13.90;97451.00;;;;5012850;28;20141;-58
2023/03/24 08:35:27;;;;;;;5.03;3.53;;;;;13.90;97461.00;;;;5012842;28;20077;-56
2023/03/24 08:37:53;;;;;;;5.20;3.78;;;;;14.20;97468.00;;;;5011344;28;20057;-58
2023/03/24 08:40:22;;;;;;;4.47;3.25;;;;;14.40;97466.00;;;;5010592;28;20526;-58
2023/03/24 08:42:55;;;;;;;4.75;3.25;;;;;14.40;97463.00;;;;5012688;28;20483;-57
2023/03/24 08:45:26;;;;;;;6.53;5.03;;;;;14.50;97462.00;;;;5011545;28;20306;-57
2023/03/24 08:47:54;;;;;;;4.18;3.50;;;;;14.60;97465.00;;;;5012742;28;20041;-59
2023/03/24 08:50:22;;;;;;;4.25;3.10;;;;;14.70;97463.00;;;;5012052;28;20041;-61
2023/03/24 08:52:49;;;;;;;6.50;3.55;;;;;14.70;97473.00;;;;5012334;28;20045;-60
2023/03/24 08:55:18;;;;;;;3.78;3.13;;;;;14.80;97466.00;;;;5012515;28;20492;-60
2023/03/24 08:57:45;;;;;;;3.70;3.03;;;;;14.90;97479.00;;;;5012544;28;20049;-60
2023/03/24 09:00:14;;;;;;;2.85;2.65;;;;;14.80;97475.00;;;;5011801;28;20125;-60
2023/03/24 09:02:42;;;;;;;3.20;2.38;;;;;14.80;97483.00;;;;5012399;28;20034;-60
2023/03/24 09:05:10;;;;;;;3.17;2.92;;;;;14.80;97486.00;;;;5012340;28;20042;-60
2023/03/24 09:07:37;;;;;;;3.13;2.83;;;;;14.70;97491.00;;;;5012183;28;20053;-60
2023/03/24 09:10:05;;;;;;;4.90;2.80;;;;;14.50;97498.00;;;;5010376;28;20069;-57
2023/03/24 09:12:32;;;;;;;2.28;2.08;;;;;14.40;97495.00;;;;5014711;28;20046;-60
2023/03/24 09:14:59;;;;;;;2.90;2.60;;;;;14.40;97489.00;;;;5016355;28;20038;-59
2023/03/24 09:17:26;;;;;;;3.65;2.45;;;;;14.30;97490.00;;;;5016233;28;20045;-58
2023/03/24 09:19:52;;;;;;;3.35;2.40;;;;;14.30;97495.00;;;;5015561;28;20049;-59
2023/03/24 09:22:19;;;;;;;4.28;2.85;;;;;14.20;97492.00;;;;5031626;28;20104;-60
2023/03/24 09:24:47;;;;;;;3.38;2.75;;;;;14.20;97499.00;;;;5016061;28;20092;-60
2023/03/24 09:27:15;;;;;;;3.05;2.60;;;;;14.00;97498.00;;;;5014823;28;20050;-60
2023/03/24 09:29:42;;;;;;;5.85;2.88;;;;;13.90;97496.00;;;;5015476;28;20050;-63
2023/03/24 09:32:09;;;;;;;6.93;3.33;;;;;13.80;97515.00;;;;5014743;28;20038;-59
2023/03/24 09:34:37;;;;;;;3.90;3.00;;;;;13.80;97518.00;;;;5016124;28;20038;-60
2023/03/24 09:37:04;;;;;;;3.17;2.88;;;;;13.80;97519.00;;;;5016164;28;20116;-60
2023/03/24 09:39:35;;;;;;;4.22;3.28;;;;;13.80;97525.00;;;;5015744;28;20054;-60
2023/03/24 09:42:04;;;;;;;3.80;2.85;;;;;13.80;97521.00;;;;5016242;28;20042;-60
2023/03/24 09:44:39;;;;;;;2.90;2.60;;;;;14.00;97518.00;;;;5015844;28;20096;-59
2023/03/24 09:47:25;;;;;;;2.63;2.40;;;;;14.00;97511.00;;;;5016092;28;20045;-59
2023/03/24 09:49:54;;;;;;;2.95;2.50;;;;;14.10;97513.00;;;;5015034;28;20046;-59
2023/03/24 09:52:28;;;;;;;3.33;2.40;;;;;14.10;97512.00;;;;5015588;28;20045;-59
2023/03/24 09:54:57;;;;;;;;;;;;;14.20;97517.00;;;;5016117;28;20060;-60
2023/03/24 09:57:29;;;;;;;2.47;2.10;;;;;14.20;97524.00;;;;5015677;28;19922;-57
2023/03/24 09:59:56;;;;;;;2.75;2.55;;;;;14.20;97518.00;;;;5015394;28;20125;-59
2023/03/24 10:02:22;;;;;;;3.08;2.47;;;;;14.10;97574.00;;;;5015529;28;20503;-59
2023/03/24 10:04:49;;;;;;;2.97;1.77;;;;;13.80;97570.00;;;;5015690;28;20132;-59
2023/03/24 10:07:24;;;;;;;1.35;1.25;;;;;13.40;97567.00;;;;5015560;28;20113;-59
2023/03/24 10:09:58;;;;;;;1.25;1.05;;;;;13.20;97557.00;;;;5015266;28;20074;-62
2023/03/24 10:12:44;;;;;;;1.63;1.00;;;;;13.20;97572.00;;;;5015848;28;20164;-61
2023/03/24 10:15:50;;;;;;;1.95;1.00;;;;;13.20;97577.00;;;;5016255;28;20045;-59
2023/03/24 10:18:28;;;;;;;1.20;1.10;;;;;13.30;97577.00;;;;5014063;28;20054;-59
2023/03/24 10:21:15;;;;;;;2.55;1.30;;;;;13.60;97581.00;;;;5016653;28;20056;-60
2023/03/24 10:24:03;;;;;;;1.38;1.15;;;;;13.80;97598.00;;;;5015191;28;20073;-56
2023/03/24 10:26:35;;;;;;;3.28;1.40;;;;;13.80;97605.00;;;;5016140;28;20042;-62
2023/03/24 10:29:28;;;;;;;3.00;1.75;;;;;13.80;97618.00;;;;5014420;28;20056;-59
2023/03/24 10:32:14;;;;;;;4.00;1.60;;;;;13.80;97627.00;;;;5015318;28;20041;-60
2023/03/24 10:34:43;;;;;;;3.15;1.23;;;;;13.70;97637.00;;;;5015029;28;20129;-59
2023/03/24 10:37:12;;;;;;;0.80;0.80;;;;;13.50;97633.00;;;;5016001;28;20057;-63
2023/03/24 10:39:39;;;;;;;2.83;1.38;;;;;13.30;97623.00;;;;5017227;28;20128;-62
2023/03/24 10:42:23;;;;;;;3.67;1.50;;;;;13.30;97632.00;;;;5017608;28;20092;-61
2023/03/24 10:44:50;;;;;;;5.60;1.60;;;;;13.30;97634.00;;;;5016213;28;20105;-60
2023/03/24 10:47:27;;;;;;;2.92;1.30;;;;;13.30;97631.00;;;;5018155;28;20371;-62
2023/03/24 10:49:57;;;;;;;3.00;1.20;;;;;13.30;97625.00;;;;5017246;28;20042;-62
2023/03/24 10:52:47;;;;;;;1.90;1.40;;;;;13.40;97618.00;;;;5018531;28;20053;-62
2023/03/24 10:55:17;;;;;;;2.67;1.73;;;;;13.60;97628.00;;;;5018446;28;20046;-62
2023/03/24 10:57:52;;;;;;;6.72;3.40;;;;;13.70;97639.00;;;;5016222;28;20050;-62
2023/03/24 11:00:30;;;;;;;2.60;2.25;;;;;13.90;97618.00;;;;5031457;28;20042;-62
2023/03/24 11:03:04;;;;;;;5.32;3.03;;;;;14.10;97619.00;;;;5017030;28;20060;-61
2023/03/24 11:05:35;;;;;;;3.80;1.92;;;;;14.30;97612.00;;;;5031683;28;20108;-63
2023/03/24 11:08:32;;;;;;;6.53;2.15;;;;;14.60;97616.00;;;;5031518;28;20049;-62
2023/03/24 11:10:59;;;;;;;4.43;2.72;;;;;14.70;97634.00;;;;5013771;28;20132;-63
2023/03/24 11:13:33;;;;;;;2.45;2.22;;;;;14.80;97636.00;;;;5030542;28;20470;-63
2023/03/24 11:16:06;;;;;;;2.17;1.63;;;;;14.80;97650.00;;;;5014127;28;20495;-62
2023/03/24 11:18:32;;;;;;;1.88;1.20;;;;;14.80;97650.00;;;;5013277;28;20057;-62
2023/03/24 11:21:04;;;;;;;2.85;1.45;;;;;14.80;97654.00;;;;5014415;28;20433;-62
2023/03/24 11:23:38;;;;;;;3.67;1.80;;;;;14.80;97649.00;;;;5015815;28;20392;-63
2023/03/24 11:26:11;;;;;;;;;;;;;14.90;97650.00;;;;5016378;28;20498;-61
2023/03/24 11:28:45;;;;;;;1.90;1.42;;;;;14.90;97653.00;;;;5014340;28;19988;-64
2023/03/24 11:31:23;;;;;;;2.60;1.70;;;;;15.10;97647.00;;;;5030924;28;20061;-63
2023/03/24 11:34:01;;;;;;;3.28;2.33;;;;;15.10;97649.00;;;;5013996;28;20037;-62
2023/03/24 11:36:29;;;;;;;3.58;1.90;;;;;15.10;97637.00;;;;5015053;28;20131;-62
2023/03/24 11:39:06;;;;;;;2.55;1.50;;;;;15.20;97632.00;;;;5013857;28;20557;-62
2023/03/24 11:41:35;;;;;;;3.97;1.50;;;;;15.70;97627.00;;;;5014050;28;20128;-61
2023/03/24 11:44:22;;;;;;;3.72;1.95;;;;;16.00;97632.00;;;;5014286;28;20437;-61
2023/03/24 11:46:55;;;;;;;2.38;1.80;;;;;16.30;97631.00;;;;5013462;28;20063;-61
2023/03/24 11:49:27;;;;;;;2.38;1.90;;;;;16.50;97607.00;;;;5013737;28;20046;-58
2023/03/24 11:51:54;;;;;;;6.13;2.45;;;;;16.60;97624.00;;;;5012510;28;20053;-59
2023/03/24 11:54:27;;;;;;;3.42;1.67;;;;;16.60;97619.00;;;;5013308;28;20061;-59
2023/03/24 11:57:00;;;;;;;3.38;2.17;;;;;16.70;97622.00;;;;5013603;28;20069;-59
2023/03/24 11:59:56;;;;;;;4.55;2.25;;;;;16.80;97629.00;;;;5011922;28;20325;-60
2023/03/24 12:02:49;;;;;;;5.63;2.00;;;;;16.90;97636.00;;;;5008279;28;20050;-60
2023/03/24 12:05:35;;;;;;;4.25;1.38;;;;;17.00;97616.00;;;;5012260;28;20515;-60
2023/03/24 12:08:21;;;;;;;3.28;1.38;;;;;16.90;97630.00;;;;5012208;28;20081;-59
2023/03/24 12:11:09;;;;;;;4.45;1.60;;;;;16.90;97625.00;;;;5013002;28;20051;-60
2023/03/24 12:13:40;;;;;;;2.63;1.50;;;;;16.90;97610.00;;;;5013350;28;20052;-60
2023/03/24 12:16:28;;;;;;;3.40;2.13;;;;;16.90;97630.00;;;;5012261;28;20058;-60
2023/03/24 12:19:26;;;;;;;2.70;1.60;;;;;16.90;97613.00;;;;5011846;28;20052;-61
2023/03/24 12:22:00;;;;;;;3.53;1.42;;;;;17.10;97616.00;;;;5013522;28;20050;-60
2023/03/24 12:24:43;;;;;;;3.20;1.27;;;;;17.10;97626.00;;;;5013618;28;20080;-60
2023/03/24 12:27:47;;;;;;;3.92;1.70;;;;;17.30;97610.00;;;;5013179;28;20049;-59
2023/03/24 12:30:52;;;;;;;2.20;1.30;;;;;17.60;97612.00;;;;5012462;28;20050;-59
2023/03/24 12:33:30;;;;;;;2.20;1.52;;;;;17.80;97604.00;;;;5002794;28;20136;-58
2023/03/24 12:36:06;;;;;;;5.72;2.10;;;;;18.10;97602.00;;;;5011802;28;20061;-60
2023/03/24 12:38:41;;;;;;;2.10;1.25;;;;;18.40;97614.00;;;;5012345;28;20119;-59
2023/03/24 12:41:40;;;;;;;3.63;1.42;;;;;18.30;97616.00;;;;5012992;28;20054;-59
2023/03/24 12:44:27;;;;;;;4.88;1.63;;;;;18.30;97619.00;;;;5020787;28;20058;-60
2023/03/24 12:47:21;;;;;;;3.25;1.50;;;;;18.20;97611.00;;;;5011888;28;20100;-60
2023/03/24 12:50:09;;;;;;;2.85;1.50;;;;;17.70;97607.00;;;;5012247;28;20042;-60
2023/03/24 12:53:03;;;;;;;2.80;1.50;;;;;17.30;97602.00;;;;5012639;28;20057;-60
2023/03/24 12:55:47;;;;;;;3.95;1.90;;;;;17.00;97607.00;;;;5012546;28;20068;-60
2023/03/24 12:58:31;;;;;;;3.35;1.83;;;;;16.90;97604.00;;;;5012293;28;20072;-59